Time,TemperatureF,DewpointF,PressureIn,WindDirection,WindDirectionDegrees,WindSpeedMPH,WindSpeedGustMPH,Humidity,HourlyPrecipIn,Conditions,Clouds,dailyrainin,SoftwareType,DateUTC
2013-05-04 10:52:00,58.0,40.0,30.08,South,179,5.0,12.0,52,0.00,,,0.00,,2013-05-04 14:52:00,
2013-05-04 11:21:00,60.0,42.0,30.07,SE,133,6.0,13.0,51,0.00,,,0.00,,2013-05-04 15:21:00,
2013-05-04 12:22:00,62.0,44.0,30.07,SSE,159,4.0,16.0,51,0.00,,,0.00,,2013-05-04 16:22:00,
2013-05-04 12:42:00,62.0,44.0,30.07,SSE,159,4.0,16.0,51,0.00,,,0.00,,2013-05-04 16:42:00,
2013-05-04 12:52:00,63.0,44.0,30.06,SSE,163,9.0,19.0,49,0.00,,,0.00,,2013-05-04 16:52:00,
2013-05-04 13:02:00,63.0,44.0,30.06,SSE,163,9.0,19.0,49,0.00,,,0.00,,2013-05-04 17:02:00,
2013-05-04 13:12:00,63.0,44.0,30.06,SSE,163,9.0,19.0,49,0.00,,,0.00,,2013-05-04 17:12:00,
2013-05-04 13:22:00,64.0,43.0,30.05,SE,132,6.0,16.0,47,0.00,,,0.00,,2013-05-04 17:22:00,
2013-05-04 13:32:00,64.0,43.0,30.05,SE,132,6.0,16.0,47,0.00,,,0.00,,2013-05-04 17:32:00,
2013-05-04 13:42:00,64.0,43.0,30.05,SE,132,6.0,16.0,47,0.00,,,0.00,,2013-05-04 17:42:00,
2013-05-04 13:52:00,65.0,45.0,30.04,ENE,75,8.0,16.0,48,0.00,,,0.00,,2013-05-04 17:52:00,
2013-05-04 14:01:00,65.0,45.0,30.04,ENE,75,8.0,16.0,48,0.00,,,0.00,,2013-05-04 18:01:00,
2013-05-04 14:12:00,65.0,45.0,30.04,ENE,75,8.0,16.0,48,0.00,,,0.00,,2013-05-04 18:12:00,
2013-05-04 14:21:00,67.0,46.0,30.03,ENE,77,6.0,15.0,47,0.00,,,0.00,,2013-05-04 18:21:00,
2013-05-04 14:32:00,67.0,46.0,30.03,ENE,77,6.0,15.0,47,0.00,,,0.00,,2013-05-04 18:32:00,
2013-05-04 14:42:00,67.0,46.0,30.03,ENE,77,6.0,15.0,47,0.00,,,0.00,,2013-05-04 18:42:00,
2013-05-04 14:52:00,66.0,46.0,30.03,ENE,76,3.0,18.0,49,0.00,,,0.00,,2013-05-04 18:52:00,
2013-05-04 15:01:00,66.0,46.0,30.03,ENE,76,3.0,18.0,49,0.00,,,0.00,,2013-05-04 19:01:00,
2013-05-04 15:11:00,66.0,46.0,30.03,ENE,76,3.0,18.0,49,0.00,,,0.00,,2013-05-04 19:11:00,
2013-05-04 15:21:00,66.0,46.0,30.02,SSW,194,3.0,14.0,48,0.00,,,0.00,,2013-05-04 19:21:00,
2013-05-04 15:31:00,66.0,46.0,30.02,SSW,194,3.0,14.0,48,0.00,,,0.00,,2013-05-04 19:31:00,
2013-05-04 15:42:00,66.0,46.0,30.02,SSW,194,3.0,14.0,48,0.00,,,0.00,,2013-05-04 19:42:00,
2013-05-04 15:52:00,67.0,47.0,30.01,ESE,109,5.0,16.0,49,0.00,,,0.00,,2013-05-04 19:52:00,
2013-05-04 16:01:00,67.0,47.0,30.01,ESE,109,5.0,16.0,49,0.00,,,0.00,,2013-05-04 20:01:00,
2013-05-04 16:11:00,67.0,47.0,30.01,ESE,109,5.0,16.0,49,0.00,,,0.00,,2013-05-04 20:11:00,
2013-05-04 16:21:00,67.0,47.0,30.01,South,191,4.0,12.0,48,0.00,,,0.00,,2013-05-04 20:21:00,
2013-05-04 16:31:00,67.0,47.0,30.01,South,191,4.0,12.0,48,0.00,,,0.00,,2013-05-04 20:31:00,
2013-05-04 16:42:00,67.0,47.0,30.01,South,191,4.0,12.0,48,0.00,,,0.00,,2013-05-04 20:42:00,
2013-05-04 16:52:00,67.0,48.0,30.00,East,94,2.0,9.0,50,0.00,,,0.00,,2013-05-04 20:52:00,
2013-05-04 17:01:00,67.0,48.0,30.00,East,94,2.0,9.0,50,0.00,,,0.00,,2013-05-04 21:01:00,
2013-05-04 17:11:00,67.0,48.0,30.00,East,94,2.0,9.0,50,0.00,,,0.00,,2013-05-04 21:11:00,
2013-05-04 17:21:00,68.0,46.0,30.00,East,101,5.0,13.0,46,0.00,,,0.00,,2013-05-04 21:21:00,
2013-05-04 17:32:00,68.0,46.0,30.00,East,101,5.0,13.0,46,0.00,,,0.00,,2013-05-04 21:32:00,
2013-05-04 17:43:00,68.0,46.0,30.00,East,101,5.0,13.0,46,0.00,,,0.00,,2013-05-04 21:43:00,
2013-05-04 17:53:00,68.0,46.0,29.99,SSE,153,5.0,15.0,46,0.00,,,0.00,,2013-05-04 21:53:00,
2013-05-04 18:02:00,68.0,46.0,29.99,SSE,153,5.0,15.0,46,0.00,,,0.00,,2013-05-04 22:02:00,
2013-05-04 18:12:00,68.0,46.0,29.99,SSE,153,5.0,15.0,46,0.00,,,0.00,,2013-05-04 22:12:00,
2013-05-04 18:22:00,68.0,47.0,29.99,East,92,10.0,16.0,47,0.00,,,0.00,,2013-05-04 22:22:00,
2013-05-04 18:32:00,68.0,47.0,29.99,East,92,10.0,16.0,47,0.00,,,0.00,,2013-05-04 22:32:00,
2013-05-04 18:42:00,68.0,47.0,29.99,East,92,10.0,16.0,47,0.00,,,0.00,,2013-05-04 22:42:00,
2013-05-04 18:52:00,68.0,47.0,29.99,East,101,3.0,9.0,47,0.00,,,0.00,,2013-05-04 22:52:00,
2013-05-04 19:02:00,68.0,47.0,29.99,East,101,3.0,9.0,47,0.00,,,0.00,,2013-05-04 23:02:00,
2013-05-04 19:11:00,68.0,47.0,29.99,East,101,3.0,9.0,47,0.00,,,0.00,,2013-05-04 23:11:00,
2013-05-04 19:21:00,68.0,47.0,30.00,ESE,117,3.0,7.0,47,0.00,,,0.00,,2013-05-04 23:21:00,
2013-05-04 19:52:00,67.0,46.0,30.00,East,101,0.0,8.0,46,0.00,,,0.00,,2013-05-04 23:52:00,
2013-05-04 20:21:00,66.0,46.0,30.01,ESE,112,0.0,4.0,48,0.00,,,0.00,,2013-05-05 00:21:00,
2013-05-04 20:52:00,65.0,46.0,30.01,ESE,110,0.0,1.0,50,0.00,,,0.00,,2013-05-05 00:52:00,
2013-05-04 21:21:00,64.0,43.0,30.02,East,81,0.0,2.0,47,0.00,,,0.00,,2013-05-05 01:21:00,
2013-05-04 21:52:00,62.0,43.0,30.02,NE,35,1.0,5.0,49,0.00,,,0.00,,2013-05-05 01:52:00,
2013-05-04 22:21:00,61.0,43.0,30.02,East,80,0.0,5.0,51,0.00,,,0.00,,2013-05-05 02:21:00,
2013-05-04 22:52:00,60.0,42.0,30.03,East,80,2.0,4.0,51,0.00,,,0.00,,2013-05-05 02:52:00,
2013-05-04 23:21:00,56.0,44.0,30.03,East,80,0.0,2.0,64,0.00,,,0.00,,2013-05-05 03:21:00,
2013-05-04 23:53:00,54.0,43.0,30.03,East,80,0.0,0.0,66,0.00,,,0.00,,2013-05-05 03:53:00,